createdAt,value
2022-11-11T00:01:49.760Z,19.50
2022-11-11T00:04:37.498Z,18.40
2022-11-11T00:07:25.159Z,20.40
2022-11-11T00:10:13.481Z,19.00
2022-11-11T00:13:03.268Z,19.20
2022-11-11T00:15:51.760Z,16.60
2022-11-11T00:18:59.750Z,14.50
2022-11-11T00:21:47.332Z,15.70
2022-11-11T00:24:53.604Z,15.20
2022-11-11T00:27:41.517Z,16.40
2022-11-11T00:30:31.875Z,16.70
2022-11-11T00:33:19.533Z,17.30
2022-11-11T00:36:08.464Z,16.20
2022-11-11T00:38:58.433Z,16.10
2022-11-11T00:41:46.542Z,18.00
2022-11-11T00:44:33.884Z,15.60
2022-11-11T00:47:40.734Z,16.20
2022-11-11T00:50:48.563Z,19.90
2022-11-11T00:53:39.116Z,16.00
2022-11-11T00:56:29.600Z,17.10
2022-11-11T00:59:20.053Z,18.00
2022-11-11T01:02:08.236Z,20.00
2022-11-11T01:04:58.740Z,24.40
2022-11-11T01:07:52.035Z,26.40
2022-11-11T01:10:42.938Z,22.50
2022-11-11T01:13:33.857Z,21.10
2022-11-11T01:16:26.151Z,19.40
2022-11-11T01:19:14.790Z,17.40
2022-11-11T01:22:03.376Z,15.70
2022-11-11T01:24:53.617Z,15.60
2022-11-11T01:27:41.534Z,16.60
2022-11-11T01:30:29.083Z,14.70
2022-11-11T01:33:16.771Z,17.00
2022-11-11T01:36:28.605Z,16.70
2022-11-11T01:39:16.598Z,13.80
2022-11-11T01:42:04.251Z,12.80
2022-11-11T01:44:52.250Z,14.60
2022-11-11T01:48:23.441Z,13.50
2022-11-11T01:51:29.552Z,14.50
2022-11-11T01:54:53.230Z,14.40
2022-11-11T01:57:57.945Z,15.80
2022-11-11T02:00:46.073Z,14.60
2022-11-11T02:03:40.529Z,16.50
2022-11-11T02:06:29.731Z,19.40
2022-11-11T02:09:17.755Z,19.10
2022-11-11T02:12:28.670Z,16.80
2022-11-11T02:15:16.796Z,17.60
2022-11-11T02:18:05.961Z,19.30
2022-11-11T02:20:57.890Z,15.20
2022-11-11T02:24:17.828Z,14.90
2022-11-11T02:27:07.359Z,16.00
2022-11-11T02:29:58.279Z,16.40
2022-11-11T02:32:50.348Z,16.10
2022-11-11T02:35:55.380Z,14.90
2022-11-11T02:38:43.733Z,15.00
2022-11-11T02:41:50.422Z,14.50
2022-11-11T02:44:38.292Z,13.80
2022-11-11T02:47:28.022Z,13.30
2022-11-11T02:50:17.204Z,14.00
2022-11-11T02:53:05.184Z,12.10
2022-11-11T02:55:55.476Z,14.00
2022-11-11T02:58:44.338Z,13.30
2022-11-11T03:01:31.715Z,12.90
2022-11-11T03:04:19.493Z,12.60
2022-11-11T03:07:07.603Z,13.60
2022-11-11T03:09:58.749Z,13.90
2022-11-11T03:12:53.847Z,12.40
2022-11-11T03:15:48.371Z,15.80
2022-11-11T03:18:37.550Z,17.00
2022-11-11T03:22:49.624Z,15.00
2022-11-11T03:24:57.105Z,15.50
2022-11-11T03:27:46.199Z,17.40
2022-11-11T03:30:33.763Z,15.70
2022-11-11T03:33:21.891Z,12.90
2022-11-11T03:36:09.904Z,14.20
2022-11-11T03:38:57.324Z,12.70
2022-11-11T03:41:44.826Z,12.30
2022-11-11T03:44:32.715Z,11.70
2022-11-11T03:47:21.194Z,10.90
2022-11-11T03:50:09.429Z,10.80
2022-11-11T03:53:00.822Z,11.70
2022-11-11T03:55:50.538Z,10.10
2022-11-11T03:58:38.361Z,11.00
2022-11-11T04:01:44.742Z,9.90
2022-11-11T04:04:51.059Z,8.90
2022-11-11T04:07:58.638Z,9.80
2022-11-11T04:10:46.841Z,8.80
2022-11-11T04:13:54.316Z,9.00
2022-11-11T04:16:41.795Z,10.00
2022-11-11T04:19:47.560Z,8.90
2022-11-11T04:22:42.107Z,9.80
2022-11-11T04:25:48.085Z,9.40
2022-11-11T04:29:14.375Z,9.80
2022-11-11T04:32:25.180Z,9.20
2022-11-11T04:35:14.650Z,10.10
2022-11-11T04:38:20.937Z,9.50
2022-11-11T04:41:11.393Z,8.90
2022-11-11T04:44:17.868Z,10.30
2022-11-11T04:47:09.712Z,9.20
2022-11-11T04:49:58.871Z,9.20
2022-11-11T04:52:55.610Z,9.90
2022-11-11T04:56:05.437Z,8.90
2022-11-11T04:59:13.543Z,10.40
2022-11-11T05:02:32.804Z,8.90
2022-11-11T05:05:20.700Z,9.20
2022-11-11T05:08:27.027Z,9.40
2022-11-11T05:11:15.699Z,9.40
2022-11-11T05:14:24.823Z,11.70
2022-11-11T05:17:31.163Z,11.30
2022-11-11T05:20:39.165Z,13.40
2022-11-11T05:23:47.090Z,12.70
2022-11-11T05:26:37.644Z,12.30
2022-11-11T05:29:25.178Z,14.10
2022-11-11T05:32:18.651Z,13.30
2022-11-11T05:35:07.028Z,12.80
2022-11-11T05:38:12.850Z,11.90
2022-11-11T05:41:00.137Z,12.40
2022-11-11T05:43:48.071Z,10.70
2022-11-11T05:46:36.098Z,11.00
2022-11-11T05:49:25.253Z,12.20
2022-11-11T05:52:16.613Z,12.60
2022-11-11T05:55:05.098Z,12.10
2022-11-11T05:57:53.110Z,11.40
2022-11-11T06:00:41.062Z,11.60
2022-11-11T06:03:28.388Z,11.90
2022-11-11T06:06:16.143Z,10.10
2022-11-11T06:09:07.078Z,11.00
2022-11-11T06:11:56.124Z,13.30
2022-11-11T06:14:43.956Z,11.50
2022-11-11T06:17:34.139Z,11.50
2022-11-11T06:20:48.041Z,11.40
2022-11-11T06:23:35.695Z,10.50
2022-11-11T06:26:25.905Z,10.40
2022-11-11T06:29:17.200Z,8.40
2022-11-11T06:32:09.402Z,10.20
2022-11-11T06:34:57.510Z,9.40
2022-11-11T06:37:45.229Z,10.40
2022-11-11T06:40:33.424Z,19.90
2022-11-11T06:43:25.731Z,17.80
2022-11-11T06:46:23.550Z,15.50
2022-11-11T06:49:11.198Z,20.30
2022-11-11T06:52:00.845Z,24.70
2022-11-11T06:54:48.289Z,15.50
2022-11-11T06:57:37.556Z,12.20
2022-11-11T07:00:25.581Z,12.30
2022-11-11T07:03:20.290Z,10.60
2022-11-11T07:06:10.638Z,80.70
2022-11-11T07:08:58.373Z,21.30
2022-11-11T07:11:45.981Z,13.10
2022-11-11T07:14:35.487Z,16.80
2022-11-11T07:17:23.377Z,12.50
2022-11-11T07:20:12.082Z,10.50
2022-11-11T07:23:00.344Z,9.90
2022-11-11T07:25:47.973Z,11.60
2022-11-11T07:28:35.806Z,11.60
2022-11-11T07:31:23.821Z,12.30
2022-11-11T07:34:11.629Z,12.50
2022-11-11T07:36:59.338Z,10.90
2022-11-11T07:39:46.773Z,11.20
2022-11-11T07:42:38.870Z,11.90
2022-11-11T07:45:26.285Z,11.80
2022-11-11T07:48:18.248Z,13.00
2022-11-11T07:51:11.822Z,10.60
2022-11-11T07:54:03.161Z,10.00
2022-11-11T07:56:51.000Z,9.50
2022-11-11T07:59:50.720Z,9.60
2022-11-11T08:02:46.532Z,9.10
2022-11-11T08:05:34.778Z,11.50
2022-11-11T08:08:29.977Z,11.30
2022-11-11T08:11:38.318Z,16.40
2022-11-11T08:14:28.633Z,15.30
2022-11-11T08:17:16.268Z,10.80
2022-11-11T08:20:07.599Z,15.40
2022-11-11T08:23:28.391Z,16.40
2022-11-11T08:26:15.588Z,13.00
2022-11-11T08:29:05.472Z,13.10
2022-11-11T08:31:53.786Z,11.80
2022-11-11T08:34:46.595Z,13.70
2022-11-11T08:37:42.113Z,12.60
2022-11-11T08:40:30.049Z,10.20
2022-11-11T08:43:31.545Z,13.70
2022-11-11T08:46:22.656Z,11.00
2022-11-11T08:49:12.678Z,9.90
2022-11-11T08:52:00.986Z,10.70
2022-11-11T08:58:01.092Z,12.50
2022-11-11T09:00:52.870Z,10.40
2022-11-11T09:03:55.711Z,10.70
2022-11-11T09:07:09.474Z,11.50
2022-11-11T09:09:57.203Z,12.10
2022-11-11T09:12:45.018Z,8.90
2022-11-11T09:15:34.743Z,11.20
2022-11-11T09:18:22.591Z,10.70
2022-11-11T09:21:12.800Z,11.70
2022-11-11T09:24:04.335Z,11.50
2022-11-11T09:26:54.870Z,10.10
2022-11-11T09:29:46.693Z,10.10
2022-11-11T09:32:38.189Z,11.80
2022-11-11T09:35:40.223Z,37.60
2022-11-11T09:38:36.947Z,10.40
2022-11-11T09:41:57.419Z,12.80
2022-11-11T09:45:33.553Z,16.40
2022-11-11T09:48:34.661Z,14.40
2022-11-11T09:51:32.940Z,11.20
2022-11-11T09:54:50.573Z,12.10
2022-11-11T09:58:01.271Z,16.20
2022-11-11T10:01:14.745Z,16.40
2022-11-11T10:04:29.871Z,11.90
2022-11-11T10:07:41.508Z,10.50
2022-11-11T10:10:51.817Z,11.20
2022-11-11T10:13:44.399Z,12.00
2022-11-11T10:17:31.723Z,10.10
2022-11-11T10:20:45.989Z,9.00
2022-11-11T10:23:52.646Z,11.00
2022-11-11T10:26:50.460Z,11.40
2022-11-11T10:29:59.703Z,12.30
2022-11-11T10:33:15.060Z,10.70
2022-11-11T10:36:14.918Z,11.00
2022-11-11T10:39:36.295Z,11.80
2022-11-11T10:42:24.289Z,10.30
2022-11-11T10:49:00.926Z,12.40
2022-11-11T10:52:08.470Z,13.50
2022-11-11T10:55:07.004Z,18.60
2022-11-11T10:58:07.615Z,12.90
2022-11-11T11:00:57.913Z,16.20
2022-11-11T11:03:55.744Z,16.10
2022-11-11T11:06:48.560Z,17.40
2022-11-11T11:09:45.988Z,13.20
2022-11-11T11:13:12.424Z,12.30
2022-11-11T11:16:15.038Z,12.30
2022-11-11T11:19:19.153Z,13.70
2022-11-11T11:22:06.769Z,24.20
2022-11-11T11:25:13.357Z,14.40
2022-11-11T11:28:15.686Z,15.30
2022-11-11T11:31:08.150Z,30.00
2022-11-11T11:33:57.200Z,21.10
2022-11-11T11:37:00.104Z,14.50
2022-11-11T11:39:49.209Z,10.30
2022-11-11T11:42:42.519Z,12.60
2022-11-11T11:45:33.525Z,12.30
2022-11-11T11:49:01.960Z,12.80
2022-11-11T11:52:02.566Z,12.20
2022-11-11T11:55:18.111Z,12.00
2022-11-11T11:58:15.186Z,11.30
2022-11-11T12:01:08.254Z,10.40
2022-11-11T12:04:39.560Z,11.40
2022-11-11T12:07:42.945Z,9.60
2022-11-11T12:11:19.021Z,9.90
2022-11-11T12:14:42.230Z,11.50
2022-11-11T12:17:59.325Z,9.60
2022-11-11T12:21:17.773Z,11.20
2022-11-11T12:24:31.518Z,14.40
2022-11-11T12:27:56.598Z,11.30
2022-11-11T12:31:20.007Z,11.40
2022-11-11T12:34:29.050Z,10.20
2022-11-11T12:37:54.400Z,9.90
2022-11-11T12:40:57.923Z,15.40
2022-11-11T12:44:10.746Z,13.20
2022-11-11T12:47:39.862Z,11.10
2022-11-11T12:51:02.895Z,10.40
2022-11-11T12:54:33.446Z,14.20
2022-11-11T12:58:01.959Z,10.60
2022-11-11T13:01:17.979Z,8.90
2022-11-11T13:04:31.274Z,10.30
2022-11-11T13:08:23.990Z,10.40
2022-11-11T13:11:38.367Z,10.90
2022-11-11T13:14:50.844Z,11.40
2022-11-11T13:17:38.683Z,11.60
2022-11-11T13:20:51.734Z,15.40
2022-11-11T13:23:40.774Z,12.40
2022-11-11T13:26:49.926Z,12.20
2022-11-11T13:29:51.042Z,11.90
2022-11-11T13:33:03.574Z,13.70
2022-11-11T13:39:00.699Z,11.30
2022-11-11T13:41:53.790Z,8.80
2022-11-11T13:44:57.673Z,11.50
2022-11-11T13:47:48.450Z,10.80
2022-11-11T13:50:56.775Z,9.20
2022-11-11T13:56:46.413Z,7.90
2022-11-11T13:59:46.901Z,7.90
2022-11-11T14:02:37.647Z,9.90
2022-11-11T14:05:27.338Z,10.10
2022-11-11T14:08:47.371Z,9.50
2022-11-11T14:11:37.562Z,10.40
2022-11-11T14:14:37.104Z,10.80
2022-11-11T14:17:30.789Z,16.70
2022-11-11T14:20:30.656Z,19.10
2022-11-11T14:23:18.664Z,15.50
2022-11-11T14:26:06.931Z,14.60
2022-11-11T14:29:07.227Z,18.10
2022-11-11T14:32:17.104Z,18.60
2022-11-11T14:35:28.138Z,19.40
2022-11-11T14:38:34.430Z,18.30
2022-11-11T14:41:43.740Z,21.80
2022-11-11T14:44:36.800Z,22.20
2022-11-11T14:47:42.006Z,25.40
2022-11-11T14:50:32.992Z,22.10
2022-11-11T14:53:49.609Z,20.00
2022-11-11T14:56:43.821Z,28.70
2022-11-11T14:59:32.813Z,28.10
2022-11-11T15:02:42.056Z,29.40
2022-11-11T15:05:50.140Z,30.90
2022-11-11T15:09:15.771Z,31.90
2022-11-11T15:12:24.462Z,29.70
2022-11-11T15:15:42.793Z,24.90
2022-11-11T15:19:02.395Z,20.90
2022-11-11T15:22:39.443Z,22.20
2022-11-11T15:26:05.958Z,22.20
2022-11-11T15:29:47.657Z,23.20
2022-11-11T15:33:04.918Z,24.50
2022-11-11T15:36:29.422Z,22.80
2022-11-11T15:39:23.237Z,16.60
2022-11-11T15:42:28.362Z,15.50
2022-11-11T15:45:32.728Z,17.00
2022-11-11T15:48:30.010Z,18.40
2022-11-11T15:51:23.141Z,21.20
2022-11-11T15:54:20.373Z,19.70
2022-11-11T15:57:36.776Z,18.00
2022-11-11T16:00:28.861Z,18.00
2022-11-11T16:06:38.668Z,21.00
2022-11-11T16:09:33.725Z,21.90
2022-11-11T16:12:33.317Z,20.60
2022-11-11T16:15:45.906Z,20.60
2022-11-11T16:19:05.089Z,19.10
2022-11-11T16:22:11.596Z,19.10
2022-11-11T16:25:05.628Z,20.10
2022-11-11T16:28:07.240Z,22.50
2022-11-11T16:30:56.803Z,38.20
2022-11-11T16:33:45.293Z,27.60
2022-11-11T16:36:35.665Z,22.80
2022-11-11T16:39:27.899Z,24.20
2022-11-11T16:42:29.950Z,23.70
2022-11-11T16:45:23.944Z,23.30
2022-11-11T16:48:44.641Z,21.40
2022-11-11T16:51:50.680Z,19.60
2022-11-11T16:54:57.799Z,20.50
2022-11-11T16:57:46.709Z,22.30
2022-11-11T17:00:40.763Z,24.60
2022-11-11T17:03:35.582Z,30.60
2022-11-11T17:07:02.479Z,37.40
2022-11-11T17:09:50.604Z,32.00
2022-11-11T17:12:39.615Z,40.50
2022-11-11T17:15:31.588Z,54.70
2022-11-11T17:18:20.278Z,36.00
2022-11-11T17:21:08.362Z,36.00
2022-11-11T17:23:56.314Z,40.60
2022-11-11T17:26:52.120Z,40.50
2022-11-11T17:29:45.918Z,33.90
2022-11-11T17:33:02.735Z,33.70
2022-11-11T17:35:55.175Z,38.00
2022-11-11T17:38:51.719Z,42.20
2022-11-11T17:41:50.155Z,67.80
2022-11-11T17:44:38.387Z,77.80
2022-11-11T17:47:35.898Z,66.60
2022-11-11T17:50:27.369Z,48.80
2022-11-11T17:53:18.888Z,41.70
2022-11-11T17:56:17.377Z,35.90
2022-11-11T17:59:25.795Z,29.50
2022-11-11T18:02:22.626Z,29.70
2022-11-11T18:05:11.056Z,28.30
2022-11-11T18:08:06.440Z,31.70
2022-11-11T18:11:11.524Z,30.30
2022-11-11T18:14:01.583Z,29.80
2022-11-11T18:16:49.715Z,32.30
2022-11-11T18:20:03.775Z,33.80
2022-11-11T18:22:58.314Z,26.50
2022-11-11T18:25:46.646Z,27.60
2022-11-11T18:28:37.909Z,28.30
2022-11-11T18:31:30.769Z,27.20
2022-11-11T18:34:29.420Z,24.70
2022-11-11T18:37:24.838Z,24.80
2022-11-11T18:40:23.877Z,25.50
2022-11-11T18:43:11.958Z,21.50
2022-11-11T18:46:07.825Z,21.50
2022-11-11T18:49:02.617Z,21.00
2022-11-11T18:51:53.739Z,21.60
2022-11-11T18:54:41.763Z,23.50
2022-11-11T18:57:36.789Z,22.30
2022-11-11T19:00:29.249Z,22.60
2022-11-11T19:03:22.285Z,23.00
2022-11-11T19:06:14.261Z,22.00
2022-11-11T19:09:42.125Z,29.20
2022-11-11T19:12:30.525Z,22.40
2022-11-11T19:15:18.426Z,22.20
2022-11-11T19:18:06.810Z,24.20
2022-11-11T19:20:55.038Z,24.30
2022-11-11T19:23:46.377Z,27.10
2022-11-11T19:26:38.165Z,31.70
2022-11-11T19:29:26.199Z,27.90
2022-11-11T19:32:14.458Z,27.50
2022-11-11T19:35:02.712Z,25.10
2022-11-11T19:38:23.833Z,25.60
2022-11-11T19:41:27.142Z,26.60
2022-11-11T19:44:18.934Z,27.40
2022-11-11T19:47:17.846Z,25.70
2022-11-11T19:53:57.298Z,26.40
2022-11-11T19:57:11.347Z,25.20
2022-11-11T19:59:59.739Z,28.20
2022-11-11T20:02:50.378Z,31.20
2022-11-11T20:05:44.675Z,31.50
2022-11-11T20:08:36.883Z,34.20
2022-11-11T20:11:32.691Z,34.00
2022-11-11T20:14:25.905Z,29.40
2022-11-11T20:17:18.510Z,29.30
2022-11-11T20:20:12.708Z,30.00
2022-11-11T20:23:07.343Z,32.70
2022-11-11T20:26:03.635Z,32.10
2022-11-11T20:28:59.190Z,31.30
2022-11-11T20:31:49.569Z,32.50
2022-11-11T20:34:45.895Z,32.40
2022-11-11T20:37:40.346Z,34.20
2022-11-11T20:40:31.801Z,33.90
2022-11-11T20:43:31.739Z,36.40
2022-11-11T20:46:26.843Z,46.30
2022-11-11T20:49:18.628Z,43.00
2022-11-11T20:52:16.256Z,39.80
2022-11-11T20:55:13.313Z,46.40
2022-11-11T20:58:04.017Z,53.30
2022-11-11T21:01:22.193Z,49.90
2022-11-11T21:04:11.280Z,51.80
2022-11-11T21:07:13.234Z,88.80
2022-11-11T21:10:37.796Z,84.10
2022-11-11T21:13:34.289Z,89.40
2022-11-11T21:16:47.051Z,85.90
2022-11-11T21:20:11.529Z,84.40
2022-11-11T21:23:16.373Z,84.80
2022-11-11T21:26:08.536Z,84.80
2022-11-11T21:28:57.997Z,86.10
2022-11-11T21:31:52.973Z,85.10
2022-11-11T21:34:45.738Z,86.20
2022-11-11T21:37:35.504Z,87.40
2022-11-11T21:40:42.851Z,82.30
2022-11-11T21:43:44.409Z,82.10
2022-11-11T21:46:36.044Z,79.10
2022-11-11T21:49:46.197Z,81.50
2022-11-11T21:52:37.138Z,85.90
2022-11-11T21:55:32.954Z,73.00
2022-11-11T21:58:21.152Z,71.70
2022-11-11T22:01:27.542Z,79.40
2022-11-11T22:04:18.539Z,75.30
2022-11-11T22:07:16.481Z,72.30
2022-11-11T22:10:06.926Z,74.10
2022-11-11T22:13:03.256Z,77.60
2022-11-11T22:16:00.306Z,78.70
2022-11-11T22:18:52.840Z,84.60
2022-11-11T22:21:47.120Z,81.30
2022-11-11T22:24:37.360Z,82.30
2022-11-11T22:27:46.493Z,82.90
2022-11-11T22:30:35.354Z,83.10
2022-11-11T22:33:26.425Z,83.90
2022-11-11T22:36:21.862Z,84.30
2022-11-11T22:39:21.790Z,83.90
2022-11-11T22:42:09.605Z,83.50
2022-11-11T22:44:58.683Z,87.20
2022-11-11T22:47:50.925Z,83.10
2022-11-11T22:50:45.843Z,85.70
2022-11-11T22:53:34.172Z,81.10
2022-11-11T22:56:22.377Z,86.60
2022-11-11T22:59:10.040Z,84.90
2022-11-11T23:01:58.113Z,84.50
2022-11-11T23:04:47.084Z,84.00
2022-11-11T23:07:39.122Z,82.30
2022-11-11T23:10:27.122Z,81.80
2022-11-11T23:13:18.150Z,78.20
2022-11-11T23:16:09.994Z,82.70
2022-11-11T23:19:01.812Z,82.10
2022-11-11T23:21:49.941Z,78.60
2022-11-11T23:24:44.103Z,76.30
2022-11-11T23:27:33.298Z,76.00
2022-11-11T23:30:23.584Z,77.20
2022-11-11T23:33:11.534Z,75.50
2022-11-11T23:36:04.694Z,77.90
2022-11-11T23:38:53.216Z,76.60
2022-11-11T23:41:41.124Z,76.20
2022-11-11T23:44:28.734Z,72.80
2022-11-11T23:47:16.668Z,73.50
2022-11-11T23:50:08.021Z,74.90
2022-11-11T23:52:56.679Z,73.80
2022-11-11T23:55:45.075Z,76.10
2022-11-11T23:58:33.238Z,67.60
